Главная страница
METAR-TAF:

METAR-TAF

Аэропорты :

Colville Lake, Северо-Западные Территории, Канада

широта: 67-01-16N, долгота: 126-07-43W, высота над уровнем моря: 274 м

Текущие метеонаблюдения

Эта сводка был подготовлена 29 минут назад, в 14:00 UTC
Ветер 6 Узел от западно-северо-западный
Температура 4°C
Влажность 81%
Давление 1014 hPa
Видимость: 14.5 км
Рассеянная облачность на высоте 6500 фута
Сплошная облачность на высоте 8200 фута

METAR: CYVL 181400Z AUTO 30006KT 9SM BKN065 OVC082 04/01 A2993 RMK SLP153

Время: 08:29 (14:29 UTC)


TAF: отсутствует

Метеонаблюдения и прогнозы для более 4000 аэропортов (сводки METAR и TAF).

Имеющиеся станции представлены на карте желтыми и красными точками.

Чтобы увидеть название станции, наведите на нее мышь.

Затем щелкните, чтобы увидеть метеонаблюдения и метеопрогнозы.

Управление картой: чтобы увеличить масштаб, щелкните зеленые кнопки с черным крестиком; чтобы уменьшить масштаб, щелкните зеленую кнопку с тире; для просмотра соседних карт щелкайте зеленые стрелки.


METAR-TAF: